Terminal Aerodrome Forecast
Issued by NWS

Home | Current Version | Previous Version | Text Only | Print | Product List | Glossary On
Versions: 1 2 3 4 5 6 7 8 9 10 11 12 13 14 15 16 17 18 19 20 21 22 23 24 25 26 27 28 29 30
982
FTUS46 KLOX 251521 AAD
TAFLAX
TAF AMD
KLAX 251521Z 2515/2618 VRB03KT P6SM BKN015 BKN040
     FM251800 25012KT P6SM VCSH SCT025 BKN040
     FM252100 27015G22KT P6SM SCT050
     FM260400 28012KT P6SM SCT060
     FM260700 VRB04KT P6SM BKN020
     FM261000 08004KT P6SM OVC025
     FM261600 VRB03KT P6SM BKN030=

USA.gov is the U.S. government's official web portal to all federal, state and local government web resources and services.